Terminal Aerodrome Forecast
Issued by NWS

Home | Current Version | Previous Version | Text Only | Print | Product List | Glossary Off
Versions: 1 2 3 4 5 6 7 8 9 10 11 12 13 14 15 16 17

000
FTUS43 KMPX 241738
TAFRWF
TAF
KRWF 241738Z 2418/2518 32020G30KT P6SM SCT050
     FM250000 32009KT P6SM BKN100
     FM250800 03004KT P6SM VCSH OVC050
     FM251100 07006KT 2SM -SN BKN020 OVC035=

USA.gov is the U.S. government's official web portal to all federal, state and local government web resources and services.